Terminal Aerodrome Forecast
Issued by NWS Greer, SC

Current Version | Previous Version | Text Only | Print | Product List | Glossary On
Versions: 1 2 3 4 5 6 7 8 9 10 11 12 13 14 15 16 17 18 19 20 21 22 23 24 25 26
000
FTUS42 KGSP 041724
TAFGSP
TAF
KGSP 041724Z 0418/0518 24013G21KT P6SM -SHRA SCT050 BKN100
     FM042300 24008KT P6SM VCSH BKN060
     FM050700 23003KT P6SM SCT020 OVC100
     FM051500 23008KT P6SM VCSH BKN070=

USA.gov is the U.S. government's official web portal to all federal, state and local government web resources and services.